sensor_id;sensor_type;location;lat;lon;timestamp;pressure;altitude;pressure_sealevel;temperature;humidity
61880;BME280;47817;52.798;27.544;2023-04-01T00:01:30;1005.7;;;8;94
61880;BME280;47817;52.798;27.544;2023-04-01T00:06:24;1005.7;;;8.1;93.8
61880;BME280;47817;52.798;27.544;2023-04-01T00:11:10;1005.7;;;8.3;93.4
61880;BME280;47817;52.798;27.544;2023-04-01T00:16:40;1005.7;;;8.3;93.1
61880;BME280;47817;52.798;27.544;2023-04-01T00:21:24;1005.7;;;8.2;93.2
61880;BME280;47817;52.798;27.544;2023-04-01T00:26:28;1005.6;;;8.1;93
61880;BME280;47817;52.798;27.544;2023-04-01T00:31:24;1005.6;;;8;93.4
61880;BME280;47817;52.798;27.544;2023-04-01T00:36:11;1005.6;;;7.9;93.9
61880;BME280;47817;52.798;27.544;2023-04-01T00:41:36;1005.6;;;7.8;94.6
61880;BME280;47817;52.798;27.544;2023-04-01T00:46:16;1005.5;;;7.8;95.1
61880;BME280;47817;52.798;27.544;2023-04-01T00:51:03;1005.5;;;7.9;95
61880;BME280;47817;52.798;27.544;2023-04-01T00:56:24;1005.4;;;7.9;95
61880;BME280;47817;52.798;27.544;2023-04-01T01:01:08;1005.4;;;8;94.6
61880;BME280;47817;52.798;27.544;2023-04-01T01:06:39;1005.4;;;8;93.8
61880;BME280;47817;52.798;27.544;2023-04-01T01:11:24;1005.4;;;7.9;93.5
61880;BME280;47817;52.798;27.544;2023-04-01T01:15:53;1005.5;;;7.9;93.1
61880;BME280;47817;52.798;27.544;2023-04-01T01:21:28;1005.5;;;7.7;92.8
61880;BME280;47817;52.798;27.544;2023-04-01T01:26:14;1005.5;;;7.6;93.5
61880;BME280;47817;52.798;27.544;2023-04-01T01:31:41;1005.4;;;7.5;93.9
61880;BME280;47817;52.798;27.544;2023-04-01T01:36:22;1005.4;;;7.4;93.5
61880;BME280;47817;52.798;27.544;2023-04-01T01:41:03;1005.3;;;7.3;93
61880;BME280;47817;52.798;27.544;2023-04-01T01:46:38;1005.3;;;7.2;93.4
61880;BME280;47817;52.798;27.544;2023-04-01T01:51:08;1005.3;;;7.1;94.3
61880;BME280;47817;52.798;27.544;2023-04-01T01:56:30;1005.3;;;7.1;93.5
61880;BME280;47817;52.798;27.544;2023-04-01T02:01:23;1005.3;;;6.9;93.1
61880;BME280;47817;52.798;27.544;2023-04-01T02:06:03;1005.3;;;6.8;93
61880;BME280;47817;52.798;27.544;2023-04-01T02:11:40;1005.3;;;6.7;92.7
61880;BME280;47817;52.798;27.544;2023-04-01T02:16:11;1005.3;;;6.5;92.7
61880;BME280;47817;52.798;27.544;2023-04-01T02:21:31;1005.4;;;6.4;93
61880;BME280;47817;52.798;27.544;2023-04-01T02:25:52;1005.4;;;6.4;93.8
61880;BME280;47817;52.798;27.544;2023-04-01T02:30:52;1005.3;;;6.5;94.9
61880;BME280;47817;52.798;27.544;2023-04-01T02:35:54;1005.3;;;6.7;95.7
61880;BME280;47817;52.798;27.544;2023-04-01T02:41:08;1005.3;;;6.8;95.8
61880;BME280;47817;52.798;27.544;2023-04-01T02:46:06;1005.4;;;6.8;95.7
61880;BME280;47817;52.798;27.544;2023-04-01T02:50:52;1005.4;;;6.8;94.9
61880;BME280;47817;52.798;27.544;2023-04-01T02:56:02;1005.4;;;6.7;94.4
61880;BME280;47817;52.798;27.544;2023-04-01T03:01:38;1005.4;;;6.6;94.3
61880;BME280;47817;52.798;27.544;2023-04-01T03:06:09;1005.2;;;6.5;94.1
61880;BME280;47817;52.798;27.544;2023-04-01T03:11:30;1005.2;;;6.4;93.8
61880;BME280;47817;52.798;27.544;2023-04-01T03:16:08;1005.2;;;6.4;93.8
61880;BME280;47817;52.798;27.544;2023-04-01T03:21:17;1005.2;;;6.5;94.5
61880;BME280;47817;52.798;27.544;2023-04-01T03:26:38;1005.2;;;6.6;94.2
61880;BME280;47817;52.798;27.544;2023-04-01T03:31:09;1005.2;;;6.6;93.6
61880;BME280;47817;52.798;27.544;2023-04-01T03:36:02;1005.1;;;6.6;93.5
61880;BME280;47817;52.798;27.544;2023-04-01T03:41:11;1005.2;;;6.5;93.6
61880;BME280;47817;52.798;27.544;2023-04-01T03:45:52;1005.2;;;6.5;93.7
61880;BME280;47817;52.798;27.544;2023-04-01T03:51:39;1005.2;;;6.5;94.3
61880;BME280;47817;52.798;27.544;2023-04-01T03:56:03;1005.3;;;6.5;94.6
61880;BME280;47817;52.798;27.544;2023-04-01T04:01:30;1005.3;;;6.6;94.3
61880;BME280;47817;52.798;27.544;2023-04-01T04:06:10;1005.3;;;6.7;94.6
61880;BME280;47817;52.798;27.544;2023-04-01T04:10:54;1005.2;;;6.9;94.8
61880;BME280;47817;52.798;27.544;2023-04-01T04:16:38;1005.2;;;7.1;94.4
61880;BME280;47817;52.798;27.544;2023-04-01T04:21:11;1005.2;;;7.3;93.8
61880;BME280;47817;52.798;27.544;2023-04-01T04:26:30;1005.3;;;7.5;93.1
61880;BME280;47817;52.798;27.544;2023-04-01T04:31:08;1005.3;;;7.6;92.6
61880;BME280;47817;52.798;27.544;2023-04-01T04:36:16;1005.3;;;7.7;92.2
61880;BME280;47817;52.798;27.544;2023-04-01T04:41:37;1005.3;;;7.8;91.8
61880;BME280;47817;52.798;27.544;2023-04-01T04:46:08;1005.3;;;8;91
61880;BME280;47817;52.798;27.544;2023-04-01T04:51:28;1005.3;;;8.2;90.5
61880;BME280;47817;52.798;27.544;2023-04-01T04:55:58;1005.2;;;8.2;90.1
61880;BME280;47817;52.798;27.544;2023-04-01T05:01:16;1005.2;;;8.1;89.6
61880;BME280;47817;52.798;27.544;2023-04-01T05:06:38;1005.2;;;8;89.5
61880;BME280;47817;52.798;27.544;2023-04-01T05:11:09;1005.2;;;8.2;89.2
61880;BME280;47817;52.798;27.544;2023-04-01T05:16:30;1005.2;;;8.6;88.4
61880;BME280;47817;52.798;27.544;2023-04-01T05:21:09;1005.2;;;8.8;87.7
61880;BME280;47817;52.798;27.544;2023-04-01T05:26:09;1005.1;;;8.9;87.2
61880;BME280;47817;52.798;27.544;2023-04-01T05:31:38;1005.2;;;9;86.8
61880;BME280;47817;52.798;27.544;2023-04-01T05:36:09;1005.2;;;9.1;86.5
61880;BME280;47817;52.798;27.544;2023-04-01T05:41:37;1005.1;;;9.2;86.3
61880;BME280;47817;52.798;27.544;2023-04-01T05:46:22;1005.1;;;9.2;86.2
61880;BME280;47817;52.798;27.544;2023-04-01T05:50:52;1005.2;;;9.4;85.9
61880;BME280;47817;52.798;27.544;2023-04-01T05:56:14;1005.1;;;9.5;85.8
61880;BME280;47817;52.798;27.544;2023-04-01T06:01:16;1005.1;;;9.6;85.6
61880;BME280;47817;52.798;27.544;2023-04-01T06:06:38;1005;;;9.6;85.3
61880;BME280;47817;52.798;27.544;2023-04-01T06:11:24;1005.2;;;9.5;85.6
61880;BME280;47817;52.798;27.544;2023-04-01T06:16:04;1005.3;;;9.4;85.7
61880;BME280;47817;52.798;27.544;2023-04-01T06:20:54;1005.2;;;9.3;86
61880;BME280;47817;52.798;27.544;2023-04-01T06:26:20;1005.3;;;9.3;86.1
61880;BME280;47817;52.798;27.544;2023-04-01T06:31:46;1005.3;;;9.3;86
61880;BME280;47817;52.798;27.544;2023-04-01T06:36:26;1005.3;;;9.4;85.9
61880;BME280;47817;52.798;27.544;2023-04-01T06:40:56;1005.3;;;9.4;85.8
61880;BME280;47817;52.798;27.544;2023-04-01T06:46:40;1005.2;;;9.5;85.6
61880;BME280;47817;52.798;27.544;2023-04-01T06:50:54;1005.3;;;9.7;85.2
61880;BME280;47817;52.798;27.544;2023-04-01T06:56:40;1005.3;;;9.8;84.8
61880;BME280;47817;52.798;27.544;2023-04-01T07:01:24;1005.4;;;9.9;84.3
61880;BME280;47817;52.798;27.544;2023-04-01T07:06:19;1005.3;;;10;84.1
61880;BME280;47817;52.798;27.544;2023-04-01T07:10:53;1005.4;;;10.1;83.9
61880;BME280;47817;52.798;27.544;2023-04-01T07:16:08;1005.3;;;10.3;83.6
61880;BME280;47817;52.798;27.544;2023-04-01T07:20:54;1005.3;;;10.4;83.1
61880;BME280;47817;52.798;27.544;2023-04-01T07:26:23;1005.3;;;10.4;82.8
61880;BME280;47817;52.798;27.544;2023-04-01T07:31:36;1005.3;;;10.5;82.4
61880;BME280;47817;52.798;27.544;2023-04-01T07:36:18;1005.3;;;10.7;81.9
61880;BME280;47817;52.798;27.544;2023-04-01T07:40:54;1005.3;;;10.7;81.6
61880;BME280;47817;52.798;27.544;2023-04-01T07:46:44;1005.3;;;10.6;82
61880;BME280;47817;52.798;27.544;2023-04-01T07:51:23;1005.3;;;10.6;82.2
61880;BME280;47817;52.798;27.544;2023-04-01T07:56:05;1005.3;;;10.7;81.8
61880;BME280;47817;52.798;27.544;2023-04-01T08:01:18;1005.3;;;11;81.2
61880;BME280;47817;52.798;27.544;2023-04-01T08:06:18;1005.4;;;11.3;80.4
61880;BME280;47817;52.798;27.544;2023-04-01T08:11:41;1005.5;;;11.7;79.1
61880;BME280;47817;52.798;27.544;2023-04-01T08:16:23;1005.4;;;12;77.9
61880;BME280;47817;52.798;27.544;2023-04-01T08:20:53;1005.4;;;12;77.6
61880;BME280;47817;52.798;27.544;2023-04-01T08:25:53;1005.5;;;11.9;77.7
61880;BME280;47817;52.798;27.544;2023-04-01T08:31:31;1005.6;;;11.9;77.9
61880;BME280;47817;52.798;27.544;2023-04-01T08:36:37;1005.5;;;12.1;77.9
61880;BME280;47817;52.798;27.544;2023-04-01T08:41:50;1005.6;;;12.3;77.4
61880;BME280;47817;52.798;27.544;2023-04-01T08:46:16;1005.6;;;12.4;76.9
61880;BME280;47817;52.798;27.544;2023-04-01T08:55:56;1005.6;;;12.7;76.5
61880;BME280;47817;52.798;27.544;2023-04-01T09:01:42;1005.6;;;13;75.8
61880;BME280;47817;52.798;27.544;2023-04-01T09:06:32;1005.5;;;13.3;74.9
61880;BME280;47817;52.798;27.544;2023-04-01T09:10:59;1005.5;;;13.8;74.2
61880;BME280;47817;52.798;27.544;2023-04-01T09:15:57;1005.5;;;14.3;73.3
61880;BME280;47817;52.798;27.544;2023-04-01T09:21:14;1005.5;;;14.4;72.9
61880;BME280;47817;52.798;27.544;2023-04-01T09:26:44;1005.5;;;14.5;72.2
61880;BME280;47817;52.798;27.544;2023-04-01T09:31:23;1005.5;;;14.5;71.7
61880;BME280;47817;52.798;27.544;2023-04-01T09:36:03;1005.5;;;14.3;71.9
61880;BME280;47817;52.798;27.544;2023-04-01T09:40:54;1005.5;;;13.9;72.7
61880;BME280;47817;52.798;27.544;2023-04-01T09:46:08;1005.5;;;13.7;73.4
61880;BME280;47817;52.798;27.544;2023-04-01T09:51:40;1005.5;;;13.6;73.7
61880;BME280;47817;52.798;27.544;2023-04-01T09:56:33;1005.6;;;13.5;73.9
61880;BME280;47817;52.798;27.544;2023-04-01T10:01:45;1005.7;;;13.4;74.2
61880;BME280;47817;52.798;27.544;2023-04-01T10:08:20;1005.7;;;13.4;74.2
61880;BME280;47817;52.798;27.544;2023-04-01T10:11:09;1005.7;;;13.6;73.9
61880;BME280;47817;52.798;27.544;2023-04-01T10:21:46;1005.7;;;13.9;73.1
61880;BME280;47817;52.798;27.544;2023-04-01T10:26:45;1005.8;;;13.7;73.5
61880;BME280;47817;52.798;27.544;2023-04-01T10:31:13;1005.7;;;13.8;73.5
61880;BME280;47817;52.798;27.544;2023-04-01T10:36:12;1005.8;;;13.7;73.6
61880;BME280;47817;52.798;27.544;2023-04-01T10:41:41;1005.8;;;13.8;73.6
61880;BME280;47817;52.798;27.544;2023-04-01T10:46:28;1005.8;;;13.8;73.5
61880;BME280;47817;52.798;27.544;2023-04-01T10:51:23;1005.8;;;13.8;73.4
61880;BME280;47817;52.798;27.544;2023-04-01T10:56:27;1005.8;;;13.8;73.5
61880;BME280;47817;52.798;27.544;2023-04-01T11:01:05;1005.8;;;13.7;73.8
61880;BME280;47817;52.798;27.544;2023-04-01T11:11:07;1005.9;;;13.4;74.7
61880;BME280;47817;52.798;27.544;2023-04-01T11:17:15;1005.9;;;13.3;75
61880;BME280;47817;52.798;27.544;2023-04-01T11:21:05;1005.9;;;13.4;75.1
61880;BME280;47817;52.798;27.544;2023-04-01T11:26:04;1005.9;;;13.4;75.6
61880;BME280;47817;52.798;27.544;2023-04-01T11:31:39;1005.9;;;13.4;75.8
61880;BME280;47817;52.798;27.544;2023-04-01T11:36:22;1005.9;;;13.4;75.9
61880;BME280;47817;52.798;27.544;2023-04-01T11:41:40;1005.9;;;13.3;76.2
61880;BME280;47817;52.798;27.544;2023-04-01T11:45:53;1005.9;;;13.1;76.8
61880;BME280;47817;52.798;27.544;2023-04-01T11:51:10;1006;;;12.9;77.3
61880;BME280;47817;52.798;27.544;2023-04-01T11:56:43;1005.9;;;12.7;78.2
61880;BME280;47817;52.798;27.544;2023-04-01T12:01:25;1005.9;;;12.6;78.9
61880;BME280;47817;52.798;27.544;2023-04-01T12:06:40;1005.9;;;12.6;78.8
61880;BME280;47817;52.798;27.544;2023-04-01T12:10:54;1005.9;;;12.7;78.8
61880;BME280;47817;52.798;27.544;2023-04-01T12:16:05;1006;;;12.7;79.1
61880;BME280;47817;52.798;27.544;2023-04-01T12:21:41;1006;;;12.6;79.4
61880;BME280;47817;52.798;27.544;2023-04-01T12:26:10;1006;;;12.6;79.4
61880;BME280;47817;52.798;27.544;2023-04-01T12:31:42;1006;;;12.5;79.4
61880;BME280;47817;52.798;27.544;2023-04-01T12:35:55;1005.9;;;12.6;79.8
61880;BME280;47817;52.798;27.544;2023-04-01T12:41:00;1005.9;;;12.8;79.3
61880;BME280;47817;52.798;27.544;2023-04-01T12:46:41;1005.9;;;13;78.7
61880;BME280;47817;52.798;27.544;2023-04-01T12:51:59;1005.9;;;13.1;78.4
61880;BME280;47817;52.798;27.544;2023-04-01T12:56:40;1005.9;;;13.3;78
61880;BME280;47817;52.798;27.544;2023-04-01T13:02:13;1005.9;;;13.4;77.6
61880;BME280;47817;52.798;27.544;2023-04-01T13:11:40;1005.9;;;14;75.9
61880;BME280;47817;52.798;27.544;2023-04-01T13:16:23;1005.9;;;14.2;74.8
61880;BME280;47817;52.798;27.544;2023-04-01T13:21:41;1005.9;;;14.5;73.8
61880;BME280;47817;52.798;27.544;2023-04-01T13:25:54;1006;;;14.5;73.2
61880;BME280;47817;52.798;27.544;2023-04-01T13:30:55;1006;;;14.4;73.3
61880;BME280;47817;52.798;27.544;2023-04-01T13:36:41;1006;;;14.5;73.3
61880;BME280;47817;52.798;27.544;2023-04-01T13:41:25;1006;;;14.6;72.8
61880;BME280;47817;52.798;27.544;2023-04-01T13:46:46;1006;;;14.7;72.3
61880;BME280;47817;52.798;27.544;2023-04-01T13:51:06;1006;;;14.6;72.3
61880;BME280;47817;52.798;27.544;2023-04-01T13:56:20;1006;;;14.6;72.1
61880;BME280;47817;52.798;27.544;2023-04-01T14:01:41;1006.1;;;14.4;72.1
61880;BME280;47817;52.798;27.544;2023-04-01T14:06:09;1006.1;;;14.2;72.4
61880;BME280;47817;52.798;27.544;2023-04-01T14:11:38;1006.1;;;13.9;73.1
61880;BME280;47817;52.798;27.544;2023-04-01T14:16:05;1006.1;;;13.6;73.8
61880;BME280;47817;52.798;27.544;2023-04-01T14:21:11;1006.1;;;13.3;74.5
61880;BME280;47817;52.798;27.544;2023-04-01T14:25:55;1006.1;;;13.2;74.9
61880;BME280;47817;52.798;27.544;2023-04-01T14:31:44;1006.2;;;13;75.6
61880;BME280;47817;52.798;27.544;2023-04-01T14:36:28;1006.2;;;12.9;76
61880;BME280;47817;52.798;27.544;2023-04-01T14:40:54;1006.2;;;12.8;76.5
61880;BME280;47817;52.798;27.544;2023-04-01T14:46:08;1006.2;;;12.8;76.8
61880;BME280;47817;52.798;27.544;2023-04-01T14:51:03;1006.2;;;12.8;77.1
61880;BME280;47817;52.798;27.544;2023-04-01T14:56:39;1006.2;;;12.7;77.4
61880;BME280;47817;52.798;27.544;2023-04-01T15:01:28;1006.2;;;12.6;78.2
61880;BME280;47817;52.798;27.544;2023-04-01T15:06:45;1006.3;;;12.4;78.7
61880;BME280;47817;52.798;27.544;2023-04-01T15:11:27;1006.3;;;12.2;79.1
61880;BME280;47817;52.798;27.544;2023-04-01T15:16:06;1006.3;;;12.1;79.5
61880;BME280;47817;52.798;27.544;2023-04-01T15:21:46;1006.3;;;12;79.7
61880;BME280;47817;52.798;27.544;2023-04-01T15:26:11;1006.3;;;11.9;79.9
61880;BME280;47817;52.798;27.544;2023-04-01T15:31:05;1006.4;;;11.8;80.1
61880;BME280;47817;52.798;27.544;2023-04-01T15:36:04;1006.4;;;11.7;80.7
61880;BME280;47817;52.798;27.544;2023-04-01T15:41:20;1006.4;;;11.6;81.5
61880;BME280;47817;52.798;27.544;2023-04-01T15:46:41;1006.4;;;11.6;82.1
61880;BME280;47817;52.798;27.544;2023-04-01T15:51:11;1006.5;;;11.5;82.4
61880;BME280;47817;52.798;27.544;2023-04-01T15:56:09;1006.5;;;11.6;82.9
61880;BME280;47817;52.798;27.544;2023-04-01T16:01:05;1006.6;;;11.6;82.9
61880;BME280;47817;52.798;27.544;2023-04-01T16:05:55;1006.7;;;11.6;83.2
61880;BME280;47817;52.798;27.544;2023-04-01T16:11:39;1006.7;;;11.6;83.1
61880;BME280;47817;52.798;27.544;2023-04-01T16:16:28;1006.7;;;11.5;83
61880;BME280;47817;52.798;27.544;2023-04-01T16:21:34;1006.8;;;11.5;83.5
61880;BME280;47817;52.798;27.544;2023-04-01T16:26:05;1006.8;;;11.4;83.9
61880;BME280;47817;52.798;27.544;2023-04-01T16:31:23;1006.9;;;11.4;84.2
61880;BME280;47817;52.798;27.544;2023-04-01T16:36:41;1007;;;11.4;84.1
61880;BME280;47817;52.798;27.544;2023-04-01T16:41:11;1007;;;11.3;84.7
61880;BME280;47817;52.798;27.544;2023-04-01T16:45:54;1007;;;11.3;85
61880;BME280;47817;52.798;27.544;2023-04-01T16:51:17;1007;;;11.3;85.3
61880;BME280;47817;52.798;27.544;2023-04-01T16:55:54;1007.1;;;11.3;85.4
61880;BME280;47817;52.798;27.544;2023-04-01T17:01:18;1007.1;;;11.3;85.4
61880;BME280;47817;52.798;27.544;2023-04-01T17:06:19;1007.1;;;11.3;85.4
61880;BME280;47817;52.798;27.544;2023-04-01T17:11:18;1007.1;;;11.2;85.7
61880;BME280;47817;52.798;27.544;2023-04-01T17:16:06;1007.1;;;11.2;86
61880;BME280;47817;52.798;27.544;2023-04-01T17:21:07;1007;;;11.2;86
61880;BME280;47817;52.798;27.544;2023-04-01T17:26:42;1007.1;;;11.2;86.4
61880;BME280;47817;52.798;27.544;2023-04-01T17:31:10;1007.1;;;11.2;86.4
61880;BME280;47817;52.798;27.544;2023-04-01T17:35:55;1007.1;;;11.1;86.7
61880;BME280;47817;52.798;27.544;2023-04-01T17:41:03;1007.1;;;11.1;86.5
61880;BME280;47817;52.798;27.544;2023-04-01T17:46:04;1007.2;;;11.1;86.9
61880;BME280;47817;52.798;27.544;2023-04-01T17:51:24;1007.2;;;11.1;87.1
61880;BME280;47817;52.798;27.544;2023-04-01T17:55:55;1007.3;;;11.1;87.1
61880;BME280;47817;52.798;27.544;2023-04-01T18:01:11;1007.3;;;11.1;87.2
61880;BME280;47817;52.798;27.544;2023-04-01T18:06:16;1007.3;;;11.1;87.2
61880;BME280;47817;52.798;27.544;2023-04-01T18:11:16;1007.3;;;11.1;87.1
61880;BME280;47817;52.798;27.544;2023-04-01T18:16:26;1007.3;;;11.2;87
61880;BME280;47817;52.798;27.544;2023-04-01T18:21:27;1007.3;;;11.2;87
61880;BME280;47817;52.798;27.544;2023-04-01T18:26:39;1007.3;;;11.1;87
61880;BME280;47817;52.798;27.544;2023-04-01T18:31:05;1007.2;;;11.1;87.2
61880;BME280;47817;52.798;27.544;2023-04-01T18:36:16;1007.2;;;11.1;87.4
61880;BME280;47817;52.798;27.544;2023-04-01T18:41:40;1007.3;;;11.1;87.1
61880;BME280;47817;52.798;27.544;2023-04-01T18:46:12;1007.3;;;11.1;87.1
61880;BME280;47817;52.798;27.544;2023-04-01T18:51:40;1007.3;;;11.1;87.2
61880;BME280;47817;52.798;27.544;2023-04-01T18:55:54;1007.4;;;11.1;87.4
61880;BME280;47817;52.798;27.544;2023-04-01T19:01:08;1007.5;;;11.1;87.5
61880;BME280;47817;52.798;27.544;2023-04-01T19:06:41;1007.5;;;11.1;87.5
61880;BME280;47817;52.798;27.544;2023-04-01T19:11:25;1007.5;;;11;87.5
61880;BME280;47817;52.798;27.544;2023-04-01T19:16:43;1007.6;;;11;87.4
61880;BME280;47817;52.798;27.544;2023-04-01T19:21:04;1007.6;;;11;87.7
61880;BME280;47817;52.798;27.544;2023-04-01T19:26:17;1007.6;;;11;87.8
61880;BME280;47817;52.798;27.544;2023-04-01T19:31:43;1007.7;;;11;87.8
61880;BME280;47817;52.798;27.544;2023-04-01T19:36:26;1007.7;;;10.9;87.9
61880;BME280;47817;52.798;27.544;2023-04-01T19:41:39;1007.7;;;10.9;87.9
61880;BME280;47817;52.798;27.544;2023-04-01T19:46:05;1007.7;;;10.9;87.9
61880;BME280;47817;52.798;27.544;2023-04-01T19:51:31;1007.7;;;10.9;88
61880;BME280;47817;52.798;27.544;2023-04-01T19:56:39;1007.8;;;10.9;88
61880;BME280;47817;52.798;27.544;2023-04-01T20:01:24;1007.8;;;10.9;88.2
61880;BME280;47817;52.798;27.544;2023-04-01T20:06:41;1007.8;;;10.9;88.1
61880;BME280;47817;52.798;27.544;2023-04-01T20:11:21;1007.8;;;10.9;88
61880;BME280;47817;52.798;27.544;2023-04-01T20:16:13;1007.9;;;10.9;88
61880;BME280;47817;52.798;27.544;2023-04-01T20:21:41;1007.9;;;10.9;87.9
61880;BME280;47817;52.798;27.544;2023-04-01T20:26:24;1007.9;;;10.9;87.7
61880;BME280;47817;52.798;27.544;2023-04-01T20:31:37;1008;;;10.9;87.5
61880;BME280;47817;52.798;27.544;2023-04-01T20:35:57;1008.1;;;10.8;87.7
61880;BME280;47817;52.798;27.544;2023-04-01T20:41:17;1008.1;;;10.7;87.8
61880;BME280;47817;52.798;27.544;2023-04-01T20:46:39;1008.1;;;10.7;87.8
61880;BME280;47817;52.798;27.544;2023-04-01T20:50:59;1008.1;;;10.7;88.2
61880;BME280;47817;52.798;27.544;2023-04-01T20:56:30;1008.1;;;10.7;88.4
61880;BME280;47817;52.798;27.544;2023-04-01T21:01:15;1008.1;;;10.7;88.5
61880;BME280;47817;52.798;27.544;2023-04-01T21:06:22;1008.2;;;10.7;88.7
61880;BME280;47817;52.798;27.544;2023-04-01T21:11:40;1008.2;;;10.7;89
61880;BME280;47817;52.798;27.544;2023-04-01T21:16:27;1008.2;;;10.8;89
61880;BME280;47817;52.798;27.544;2023-04-01T21:21:43;1008.3;;;10.8;89
61880;BME280;47817;52.798;27.544;2023-04-01T21:26:19;1008.3;;;10.8;89.2
61880;BME280;47817;52.798;27.544;2023-04-01T21:31:19;1008.3;;;10.9;89
61880;BME280;47817;52.798;27.544;2023-04-01T21:36:42;1008.3;;;10.9;89
61880;BME280;47817;52.798;27.544;2023-04-01T21:41:31;1008.3;;;10.9;88.9
61880;BME280;47817;52.798;27.544;2023-04-01T21:46:50;1008.3;;;10.9;88.8
61880;BME280;47817;52.798;27.544;2023-04-01T21:56:20;1008.4;;;10.8;89.2
61880;BME280;47817;52.798;27.544;2023-04-01T22:01:43;1008.4;;;10.8;89
61880;BME280;47817;52.798;27.544;2023-04-01T22:06:24;1008.4;;;10.7;89.2
61880;BME280;47817;52.798;27.544;2023-04-01T22:11:40;1008.4;;;10.7;89.5
61880;BME280;47817;52.798;27.544;2023-04-01T22:16:05;1008.4;;;10.7;89.3
61880;BME280;47817;52.798;27.544;2023-04-01T22:21:17;1008.4;;;10.7;89.5
61880;BME280;47817;52.798;27.544;2023-04-01T22:26:37;1008.4;;;10.7;89.6
61880;BME280;47817;52.798;27.544;2023-04-01T22:31:07;1008.5;;;10.7;89.5
61880;BME280;47817;52.798;27.544;2023-04-01T22:36:23;1008.5;;;10.7;89.6
61880;BME280;47817;52.798;27.544;2023-04-01T22:40:54;1008.5;;;10.7;90.1
61880;BME280;47817;52.798;27.544;2023-04-01T22:46:42;1008.5;;;10.7;90.2
61880;BME280;47817;52.798;27.544;2023-04-01T22:51:00;1008.6;;;10.8;90
61880;BME280;47817;52.798;27.544;2023-04-01T22:55:53;1008.5;;;10.8;89.7
61880;BME280;47817;52.798;27.544;2023-04-01T23:01:22;1008.6;;;10.7;89.7
61880;BME280;47817;52.798;27.544;2023-04-01T23:05:53;1008.6;;;10.6;89.8
61880;BME280;47817;52.798;27.544;2023-04-01T23:11:38;1008.6;;;10.6;90.1
61880;BME280;47817;52.798;27.544;2023-04-01T23:16:01;1008.6;;;10.6;90.5
61880;BME280;47817;52.798;27.544;2023-04-01T23:21:11;1008.6;;;10.6;90.8
61880;BME280;47817;52.798;27.544;2023-04-01T23:26:20;1008.6;;;10.6;90.8
61880;BME280;47817;52.798;27.544;2023-04-01T23:31:37;1008.6;;;10.6;91
61880;BME280;47817;52.798;27.544;2023-04-01T23:36:37;1008.6;;;10.7;90.9
61880;BME280;47817;52.798;27.544;2023-04-01T23:40:53;1008.6;;;10.7;90.8
61880;BME280;47817;52.798;27.544;2023-04-01T23:45:53;1008.6;;;10.7;90.8
61880;BME280;47817;52.798;27.544;2023-04-01T23:51:20;1008.7;;;10.8;90.6
61880;BME280;47817;52.798;27.544;2023-04-01T23:56:15;1008.8;;;10.7;90.3
